createdAt,value
2022-10-18T00:01:14.481Z,5.93
2022-10-18T00:03:45.067Z,5.90
2022-10-18T00:06:14.413Z,5.88
2022-10-18T00:08:43.639Z,5.85
2022-10-18T00:11:13.254Z,5.83
2022-10-18T00:13:43.393Z,5.82
2022-10-18T00:16:15.645Z,5.81
2022-10-18T00:18:45.895Z,5.82
2022-10-18T00:21:18.596Z,5.80
2022-10-18T00:23:49.172Z,5.78
2022-10-18T00:26:23.661Z,5.75
2022-10-18T00:28:57.184Z,5.71
2022-10-18T00:31:27.741Z,5.67
2022-10-18T00:33:59.057Z,5.63
2022-10-18T00:36:29.616Z,5.62
2022-10-18T00:38:58.350Z,5.61
2022-10-18T00:41:31.270Z,5.59
2022-10-18T00:44:05.676Z,5.56
2022-10-18T00:46:39.094Z,5.57
2022-10-18T00:49:17.289Z,5.58
2022-10-18T00:51:52.307Z,5.59
2022-10-18T00:54:22.639Z,5.60
2022-10-18T00:56:53.389Z,5.60
2022-10-18T00:59:24.923Z,5.59
2022-10-18T01:01:55.039Z,5.59
2022-10-18T01:04:24.538Z,5.59
2022-10-18T01:07:00.573Z,5.59
2022-10-18T01:09:42.293Z,5.57
2022-10-18T01:12:17.173Z,5.53
2022-10-18T01:14:59.350Z,5.52
2022-10-18T01:17:29.567Z,5.53
2022-10-18T01:20:17.955Z,5.52
2022-10-18T01:22:50.726Z,5.50
2022-10-18T01:25:43.510Z,5.48
2022-10-18T01:28:43.378Z,5.48
2022-10-18T01:31:19.367Z,5.49
2022-10-18T01:33:54.930Z,5.48
2022-10-18T01:36:36.341Z,5.46
2022-10-18T01:39:09.102Z,5.43
2022-10-18T01:41:41.357Z,5.41
2022-10-18T01:44:16.993Z,5.38
2022-10-18T01:46:47.504Z,5.37
2022-10-18T01:49:17.076Z,5.34
2022-10-18T01:51:46.246Z,5.32
2022-10-18T01:54:19.888Z,5.27
2022-10-18T01:56:56.602Z,5.24
2022-10-18T01:59:38.177Z,5.18
2022-10-18T02:02:22.206Z,5.14
2022-10-18T02:05:07.894Z,5.10
2022-10-18T02:07:40.611Z,5.05
2022-10-18T02:12:44.966Z,4.99
2022-10-18T02:15:18.147Z,4.95
2022-10-18T02:17:48.110Z,4.94
2022-10-18T02:20:21.418Z,4.91
2022-10-18T02:22:51.613Z,4.88
2022-10-18T02:25:23.322Z,4.88
2022-10-18T02:27:57.457Z,4.86
2022-10-18T02:30:36.686Z,4.85
2022-10-18T02:33:12.683Z,4.85
2022-10-18T02:35:45.656Z,4.82
2022-10-18T02:38:18.133Z,4.77
2022-10-18T02:40:47.748Z,4.73
2022-10-18T02:43:16.170Z,4.72
2022-10-18T02:45:45.729Z,4.71
2022-10-18T02:48:15.651Z,4.71
2022-10-18T02:50:45.006Z,4.73
2022-10-18T02:53:14.541Z,4.73
2022-10-18T02:55:44.393Z,4.73
2022-10-18T02:58:15.113Z,4.75
2022-10-18T03:00:44.658Z,4.75
2022-10-18T03:03:13.422Z,4.75
2022-10-18T03:05:44.473Z,4.76
2022-10-18T03:08:13.738Z,4.77
2022-10-18T03:10:46.643Z,4.78
2022-10-18T03:13:16.955Z,4.77
2022-10-18T03:15:48.395Z,4.79
2022-10-18T03:18:17.823Z,4.80
2022-10-18T03:20:47.291Z,4.78
2022-10-18T03:23:16.736Z,4.77
2022-10-18T03:25:46.480Z,4.72
2022-10-18T03:28:21.457Z,4.66
2022-10-18T03:30:50.868Z,4.62
2022-10-18T03:33:20.162Z,4.60
2022-10-18T03:35:49.844Z,4.59
2022-10-18T03:38:19.027Z,4.57
2022-10-18T03:40:48.632Z,4.58
2022-10-18T03:43:17.831Z,4.58
2022-10-18T03:45:47.403Z,4.57
2022-10-18T03:48:16.544Z,4.56
2022-10-18T03:50:46.246Z,4.58
2022-10-18T03:53:15.964Z,4.60
2022-10-18T03:55:51.878Z,4.61
2022-10-18T03:58:38.386Z,4.61
2022-10-18T04:01:07.719Z,4.61
2022-10-18T04:03:36.470Z,4.60
2022-10-18T04:06:05.669Z,4.58
2022-10-18T04:08:34.847Z,4.55
2022-10-18T04:11:11.256Z,4.54
2022-10-18T04:13:40.701Z,4.51
2022-10-18T04:16:09.854Z,4.45
2022-10-18T04:18:39.059Z,4.40
2022-10-18T04:21:10.529Z,4.39
2022-10-18T04:23:39.920Z,4.37
2022-10-18T04:26:08.261Z,4.38
2022-10-18T04:28:40.458Z,4.38
2022-10-18T04:31:10.078Z,4.37
2022-10-18T04:33:39.214Z,4.38
2022-10-18T04:36:08.683Z,4.39
2022-10-18T04:38:38.066Z,4.38
2022-10-18T04:41:07.109Z,4.42
2022-10-18T04:43:35.903Z,4.53
2022-10-18T04:46:05.248Z,4.64
2022-10-18T04:48:34.343Z,4.67
2022-10-18T04:51:03.540Z,4.66
2022-10-18T04:53:33.034Z,4.62
2022-10-18T04:56:02.095Z,4.57
2022-10-18T04:58:31.328Z,4.52
2022-10-18T05:01:00.828Z,4.48
2022-10-18T05:03:30.308Z,4.46
2022-10-18T05:06:02.865Z,4.44
2022-10-18T05:08:33.950Z,4.42
2022-10-18T05:11:04.326Z,4.40
2022-10-18T05:13:33.704Z,4.36
2022-10-18T05:16:02.903Z,4.31
2022-10-18T05:18:34.387Z,4.28
2022-10-18T05:21:03.596Z,4.29
2022-10-18T05:23:32.727Z,4.31
2022-10-18T05:26:03.702Z,4.36
2022-10-18T05:28:39.589Z,4.41
2022-10-18T05:31:11.627Z,4.44
2022-10-18T05:33:40.877Z,4.48
2022-10-18T05:36:10.537Z,4.54
2022-10-18T05:38:43.360Z,4.60
2022-10-18T05:41:13.313Z,4.66
2022-10-18T05:43:42.451Z,4.72
2022-10-18T05:46:15.405Z,4.81
2022-10-18T05:48:50.106Z,4.91
2022-10-18T05:51:20.316Z,5.06
2022-10-18T05:53:48.865Z,5.19
2022-10-18T05:56:18.016Z,5.32
2022-10-18T05:58:50.221Z,5.44
2022-10-18T06:01:19.053Z,5.57
2022-10-18T06:03:48.688Z,5.72
2022-10-18T06:06:17.777Z,5.90
2022-10-18T06:08:49.518Z,6.08
2022-10-18T06:11:20.039Z,6.26
2022-10-18T06:13:50.944Z,6.44
2022-10-18T06:16:21.706Z,6.63
2022-10-18T06:18:51.903Z,6.81
2022-10-18T06:21:22.946Z,6.97
2022-10-18T06:23:54.149Z,7.14
2022-10-18T06:26:24.318Z,7.32
2022-10-18T06:28:53.810Z,7.48
2022-10-18T06:31:23.296Z,7.66
2022-10-18T06:33:52.580Z,7.89
2022-10-18T06:36:22.898Z,8.09
2022-10-18T06:38:52.103Z,8.30
2022-10-18T06:41:22.355Z,8.52
2022-10-18T06:43:51.519Z,8.72
2022-10-18T06:46:21.197Z,8.94
2022-10-18T06:48:50.705Z,9.16
2022-10-18T06:51:20.918Z,9.37
2022-10-18T06:53:59.687Z,9.58
2022-10-18T06:56:40.309Z,9.83
2022-10-18T06:59:11.339Z,10.04
2022-10-18T07:01:40.721Z,10.21
2022-10-18T07:04:09.957Z,10.39
2022-10-18T07:06:39.001Z,10.59
2022-10-18T07:09:07.453Z,10.77
2022-10-18T07:11:36.932Z,10.97
2022-10-18T07:14:06.461Z,11.19
2022-10-18T07:16:35.797Z,11.38
2022-10-18T07:19:05.325Z,11.55
2022-10-18T07:21:34.481Z,11.68
2022-10-18T07:24:04.103Z,11.82
2022-10-18T07:26:33.604Z,11.96
2022-10-18T07:29:07.660Z,12.16
2022-10-18T07:31:38.876Z,12.39
2022-10-18T07:34:09.317Z,12.62
2022-10-18T07:36:39.087Z,12.84
2022-10-18T07:39:09.746Z,13.08
2022-10-18T07:41:40.921Z,13.30
2022-10-18T07:44:12.020Z,13.51
2022-10-18T07:46:41.506Z,13.70
2022-10-18T07:49:10.693Z,13.88
2022-10-18T07:51:39.792Z,14.08
2022-10-18T07:54:09.309Z,14.30
2022-10-18T07:56:39.108Z,14.49
2022-10-18T07:59:10.448Z,14.71
2022-10-18T08:01:40.378Z,14.96
2022-10-18T08:04:15.393Z,15.16
2022-10-18T08:06:46.009Z,15.33
2022-10-18T08:09:14.306Z,15.49
2022-10-18T08:11:45.440Z,15.69
2022-10-18T08:14:15.797Z,15.92
2022-10-18T08:16:47.423Z,16.08
2022-10-18T08:19:16.857Z,16.24
2022-10-18T08:21:46.807Z,16.38
2022-10-18T08:24:16.246Z,16.47
2022-10-18T08:26:45.722Z,16.65
2022-10-18T08:29:23.287Z,16.87
2022-10-18T08:31:55.803Z,17.10
2022-10-18T08:34:25.305Z,17.28
2022-10-18T08:36:54.337Z,17.51
2022-10-18T08:39:23.712Z,17.68
2022-10-18T08:41:55.028Z,17.88
2022-10-18T08:44:27.851Z,18.10
2022-10-18T08:47:01.061Z,18.27
2022-10-18T08:49:35.134Z,18.39
2022-10-18T08:52:07.085Z,18.48
2022-10-18T08:54:40.283Z,18.66
2022-10-18T08:57:13.811Z,18.79
2022-10-18T08:59:44.617Z,18.92
2022-10-18T09:02:15.684Z,19.17
2022-10-18T09:04:50.133Z,19.34
2022-10-18T09:07:26.575Z,19.44
2022-10-18T09:10:01.898Z,19.61
2022-10-18T09:12:46.611Z,19.72
2022-10-18T09:15:18.609Z,19.81
2022-10-18T09:17:55.728Z,20.08
2022-10-18T09:20:26.459Z,20.38
2022-10-18T09:22:57.498Z,20.60
2022-10-18T09:25:32.964Z,20.86
2022-10-18T09:28:08.483Z,21.09
2022-10-18T09:30:41.308Z,21.29
2022-10-18T09:33:19.021Z,21.53
2022-10-18T09:35:51.060Z,21.79
2022-10-18T09:38:21.782Z,21.97
2022-10-18T09:40:56.305Z,22.08
2022-10-18T09:43:39.086Z,22.20
2022-10-18T09:46:09.072Z,22.38
2022-10-18T09:48:52.035Z,22.55
2022-10-18T09:51:24.561Z,22.64
2022-10-18T09:54:00.287Z,22.65
2022-10-18T09:56:37.881Z,22.78
2022-10-18T09:59:34.180Z,22.95
2022-10-18T10:02:04.476Z,22.96
2022-10-18T10:04:32.960Z,23.11
2022-10-18T10:07:02.598Z,23.28
2022-10-18T10:09:37.377Z,23.39
2022-10-18T10:12:24.608Z,23.42
2022-10-18T10:14:54.322Z,23.54
2022-10-18T10:17:26.750Z,23.69
2022-10-18T10:20:04.062Z,23.80
2022-10-18T10:22:37.727Z,23.89
2022-10-18T10:25:07.925Z,24.03
2022-10-18T10:27:45.677Z,24.06
2022-10-18T10:30:35.741Z,24.18
2022-10-18T10:33:06.425Z,24.42
2022-10-18T10:35:56.099Z,24.59
2022-10-18T10:38:28.463Z,24.75
2022-10-18T10:40:58.235Z,24.83
2022-10-18T10:43:37.451Z,24.89
2022-10-18T10:46:10.977Z,24.91
2022-10-18T10:48:48.613Z,24.95
2022-10-18T10:51:29.662Z,25.02
2022-10-18T10:54:01.971Z,25.05
2022-10-18T10:56:34.385Z,25.07
2022-10-18T10:59:14.928Z,25.08
2022-10-18T11:01:44.345Z,24.92
2022-10-18T11:04:26.764Z,24.93
2022-10-18T11:07:12.442Z,24.94
2022-10-18T11:09:59.899Z,25.05
2022-10-18T11:12:33.663Z,25.13
2022-10-18T11:15:12.362Z,25.10
2022-10-18T11:18:00.248Z,25.08
2022-10-18T11:20:32.778Z,25.17
2022-10-18T11:23:18.537Z,25.31
2022-10-18T11:26:13.359Z,25.39
2022-10-18T11:29:02.327Z,25.28
2022-10-18T11:31:36.199Z,25.41
2022-10-18T11:34:10.778Z,25.55
2022-10-18T11:36:57.827Z,25.64
2022-10-18T11:39:39.041Z,25.67
2022-10-18T11:42:27.755Z,25.73
2022-10-18T11:45:17.974Z,25.80
2022-10-18T11:47:50.941Z,25.94
2022-10-18T11:50:42.600Z,25.85
2022-10-18T11:53:32.188Z,25.84
2022-10-18T11:56:14.352Z,25.88
2022-10-18T11:58:57.813Z,25.83
2022-10-18T12:01:32.603Z,25.82
2022-10-18T12:04:14.770Z,25.82
2022-10-18T12:06:50.919Z,25.75
2022-10-18T12:09:40.635Z,25.67
2022-10-18T12:12:18.522Z,25.74
2022-10-18T12:14:50.930Z,25.85
2022-10-18T12:17:42.910Z,25.86
2022-10-18T12:20:21.259Z,25.82
2022-10-18T12:23:04.353Z,25.81
2022-10-18T12:25:38.730Z,26.01
2022-10-18T12:28:16.944Z,26.14
2022-10-18T12:31:05.215Z,26.19
2022-10-18T12:33:43.535Z,26.15
2022-10-18T12:36:22.669Z,26.05
2022-10-18T12:38:59.668Z,26.06
2022-10-18T12:41:30.603Z,26.09
2022-10-18T12:44:02.431Z,26.09
2022-10-18T12:47:05.540Z,25.96
2022-10-18T12:49:39.129Z,26.01
2022-10-18T12:52:21.937Z,26.01
2022-10-18T12:55:06.313Z,25.97
2022-10-18T12:57:53.854Z,25.94
2022-10-18T13:00:32.366Z,25.86
2022-10-18T13:03:13.043Z,25.75
2022-10-18T13:05:53.512Z,25.78
2022-10-18T13:08:39.953Z,25.73
2022-10-18T13:11:12.770Z,25.83
2022-10-18T13:13:51.054Z,25.98
2022-10-18T13:16:29.542Z,26.04
2022-10-18T13:19:00.617Z,26.12
2022-10-18T13:21:47.113Z,25.96
2022-10-18T13:24:33.318Z,25.87
2022-10-18T13:30:13.357Z,26.03
2022-10-18T13:32:54.134Z,26.04
2022-10-18T13:35:42.074Z,26.01
2022-10-18T13:38:32.421Z,25.85
2022-10-18T13:41:02.948Z,25.66
2022-10-18T13:43:52.598Z,25.42
2022-10-18T13:46:34.034Z,24.92
2022-10-18T13:49:15.567Z,24.66
2022-10-18T13:51:55.463Z,24.56
2022-10-18T13:54:35.327Z,24.42
2022-10-18T13:57:09.573Z,24.24
2022-10-18T13:59:38.889Z,24.11
2022-10-18T14:02:16.800Z,24.02
2022-10-18T14:05:24.955Z,23.92
2022-10-18T14:08:03.850Z,23.84
2022-10-18T14:11:00.850Z,23.71
2022-10-18T14:13:34.941Z,23.54
2022-10-18T14:16:17.733Z,23.47
2022-10-18T14:18:48.589Z,23.32
2022-10-18T14:21:30.982Z,23.18
2022-10-18T14:24:01.340Z,23.01
2022-10-18T14:26:31.436Z,22.76
2022-10-18T14:29:06.439Z,22.58
2022-10-18T14:31:36.134Z,22.40
2022-10-18T14:34:05.266Z,22.28
2022-10-18T14:36:41.295Z,22.26
2022-10-18T14:39:18.864Z,22.20
2022-10-18T14:41:50.167Z,22.04
2022-10-18T14:44:21.678Z,21.97
2022-10-18T14:47:00.192Z,21.95
2022-10-18T14:49:29.807Z,21.95
2022-10-18T14:52:00.788Z,21.95
2022-10-18T14:54:31.895Z,21.94
2022-10-18T14:57:03.218Z,21.83
2022-10-18T14:59:40.914Z,21.71
2022-10-18T15:02:15.071Z,21.48
2022-10-18T15:04:47.862Z,21.24
2022-10-18T15:07:18.100Z,21.20
2022-10-18T15:09:47.887Z,21.15
2022-10-18T15:12:21.740Z,21.05
2022-10-18T15:14:51.603Z,20.87
2022-10-18T15:17:27.934Z,20.60
2022-10-18T15:20:05.056Z,20.39
2022-10-18T15:22:37.353Z,20.12
2022-10-18T15:25:11.678Z,19.90
2022-10-18T15:30:24.301Z,19.64
2022-10-18T15:33:00.213Z,19.52
2022-10-18T15:35:33.811Z,19.42
2022-10-18T15:38:23.303Z,19.29
2022-10-18T15:40:53.088Z,19.14
2022-10-18T15:43:25.301Z,19.00
2022-10-18T15:46:01.612Z,18.87
2022-10-18T15:48:36.853Z,18.72
2022-10-18T15:51:26.945Z,18.55
2022-10-18T15:53:55.392Z,18.35
2022-10-18T15:56:28.335Z,18.16
2022-10-18T15:58:59.610Z,17.96
2022-10-18T16:01:32.858Z,17.75
2022-10-18T16:04:02.978Z,17.56
2022-10-18T16:06:35.564Z,17.37
2022-10-18T16:09:05.863Z,17.16
2022-10-18T16:11:36.968Z,16.94
2022-10-18T16:14:07.449Z,16.72
2022-10-18T16:16:37.578Z,16.54
2022-10-18T16:19:07.922Z,16.38
2022-10-18T16:21:38.621Z,16.20
2022-10-18T16:24:07.251Z,16.02
2022-10-18T16:26:37.522Z,15.87
2022-10-18T16:29:07.972Z,15.69
2022-10-18T16:31:37.608Z,15.52
2022-10-18T16:34:11.122Z,15.34
2022-10-18T16:36:42.559Z,15.17
2022-10-18T16:39:16.093Z,15.02
2022-10-18T16:41:45.886Z,14.90
2022-10-18T16:44:16.769Z,14.75
2022-10-18T16:46:48.184Z,14.64
2022-10-18T16:49:24.380Z,14.54
2022-10-18T16:51:55.380Z,14.44
2022-10-18T16:54:24.043Z,14.37
2022-10-18T16:56:55.891Z,14.30
2022-10-18T16:59:29.635Z,14.15
2022-10-18T17:02:06.338Z,13.99
2022-10-18T17:04:35.629Z,13.84
2022-10-18T17:07:05.693Z,13.72
2022-10-18T17:09:37.346Z,13.62
2022-10-18T17:12:06.809Z,13.52
2022-10-18T17:14:37.272Z,13.40
2022-10-18T17:17:09.588Z,13.27
2022-10-18T17:19:39.246Z,13.14
2022-10-18T17:22:09.000Z,13.02
2022-10-18T17:24:37.496Z,12.91
2022-10-18T17:27:07.248Z,12.81
2022-10-18T17:29:36.694Z,12.75
2022-10-18T17:32:06.155Z,12.69
2022-10-18T17:34:36.453Z,12.64
2022-10-18T17:37:06.287Z,12.55
2022-10-18T17:39:36.238Z,12.47
2022-10-18T17:42:05.929Z,12.41
2022-10-18T17:44:35.626Z,12.38
2022-10-18T17:47:05.108Z,12.29
2022-10-18T17:49:36.114Z,12.15
2022-10-18T17:52:07.125Z,12.07
2022-10-18T17:54:38.655Z,12.00
2022-10-18T17:57:08.300Z,11.96
2022-10-18T17:59:37.265Z,11.94
2022-10-18T18:02:06.809Z,11.92
2022-10-18T18:04:36.477Z,11.79
2022-10-18T18:07:05.649Z,11.69
2022-10-18T18:09:35.426Z,11.63
2022-10-18T18:12:04.993Z,11.59
2022-10-18T18:14:34.587Z,11.55
2022-10-18T18:17:02.953Z,11.49
2022-10-18T18:19:32.558Z,11.43
2022-10-18T18:22:02.061Z,11.39
2022-10-18T18:24:32.290Z,11.35
2022-10-18T18:27:01.502Z,11.26
2022-10-18T18:29:31.038Z,11.17
2022-10-18T18:32:00.153Z,11.11
2022-10-18T18:34:29.893Z,11.06
2022-10-18T18:36:59.475Z,11.01
2022-10-18T18:39:30.049Z,10.98
2022-10-18T18:41:58.424Z,10.96
2022-10-18T18:44:29.931Z,10.91
2022-10-18T18:46:59.620Z,10.84
2022-10-18T18:49:28.993Z,10.78
2022-10-18T18:51:58.904Z,10.74
2022-10-18T18:54:30.101Z,10.69
2022-10-18T18:56:59.944Z,10.63
2022-10-18T18:59:28.971Z,10.56
2022-10-18T19:01:58.637Z,10.50
2022-10-18T19:04:27.066Z,10.44
2022-10-18T19:06:56.637Z,10.40
2022-10-18T19:09:27.642Z,10.36
2022-10-18T19:11:57.155Z,10.32
2022-10-18T19:14:26.703Z,10.27
2022-10-18T19:16:59.245Z,10.18
2022-10-18T19:19:30.387Z,10.08
2022-10-18T19:22:01.625Z,10.02
2022-10-18T19:24:31.286Z,9.99
2022-10-18T19:27:01.911Z,9.95
2022-10-18T19:29:35.062Z,9.93
2022-10-18T19:32:06.177Z,9.93
2022-10-18T19:34:35.805Z,9.91
2022-10-18T19:37:05.012Z,9.87
2022-10-18T19:39:35.131Z,9.82
2022-10-18T19:42:05.811Z,9.78
2022-10-18T19:44:36.423Z,9.75
2022-10-18T19:47:05.896Z,9.71
2022-10-18T19:49:35.337Z,9.68
2022-10-18T19:52:04.912Z,9.64
2022-10-18T19:54:36.171Z,9.57
2022-10-18T19:57:05.912Z,9.49
2022-10-18T19:59:37.326Z,9.45
2022-10-18T20:02:06.903Z,9.42
2022-10-18T20:04:38.538Z,9.37
2022-10-18T20:07:08.069Z,9.33
2022-10-18T20:09:37.294Z,9.32
2022-10-18T20:12:06.555Z,9.31
2022-10-18T20:14:35.755Z,9.29
2022-10-18T20:17:06.588Z,9.26
2022-10-18T20:19:35.077Z,9.19
2022-10-18T20:22:03.496Z,9.14
2022-10-18T20:24:32.975Z,9.10
2022-10-18T20:27:02.436Z,9.06
2022-10-18T20:29:33.610Z,9.03
2022-10-18T20:32:03.127Z,9.01
2022-10-18T20:34:32.464Z,8.97
2022-10-18T20:37:01.646Z,8.94
2022-10-18T20:39:30.948Z,8.90
2022-10-18T20:41:59.381Z,8.86
2022-10-18T20:44:31.122Z,8.83
2022-10-18T20:47:00.269Z,8.82
2022-10-18T20:49:31.354Z,8.80
2022-10-18T20:52:00.418Z,8.80
2022-10-18T20:54:29.577Z,8.80
2022-10-18T20:56:58.575Z,8.80
2022-10-18T20:59:27.734Z,8.78
2022-10-18T21:01:56.984Z,8.74
2022-10-18T21:04:26.178Z,8.71
2022-10-18T21:06:55.288Z,8.68
2022-10-18T21:09:24.590Z,8.65
2022-10-18T21:11:56.668Z,8.62
2022-10-18T21:14:26.036Z,8.59
2022-10-18T21:16:55.266Z,8.55
2022-10-18T21:19:26.226Z,8.50
2022-10-18T21:21:56.477Z,8.49
2022-10-18T21:24:26.260Z,8.47
2022-10-18T21:26:56.348Z,8.43
2022-10-18T21:29:25.570Z,8.35
2022-10-18T21:31:55.857Z,8.30
2022-10-18T21:34:24.337Z,8.26
2022-10-18T21:36:53.629Z,8.23
2022-10-18T21:41:58.701Z,8.13
2022-10-18T21:44:27.920Z,8.11
2022-10-18T21:46:57.328Z,8.10
2022-10-18T21:49:30.054Z,8.10
2022-10-18T21:51:59.282Z,8.08
2022-10-18T21:54:28.421Z,8.09
2022-10-18T21:56:57.610Z,8.09
2022-10-18T21:59:26.789Z,8.09
2022-10-18T22:01:56.128Z,8.08
2022-10-18T22:04:25.770Z,8.05
2022-10-18T22:06:54.526Z,8.02
2022-10-18T22:09:23.648Z,7.96
2022-10-18T22:11:53.737Z,7.90
2022-10-18T22:14:23.062Z,7.86
2022-10-18T22:16:52.515Z,7.82
2022-10-18T22:19:22.141Z,7.79
2022-10-18T22:21:52.790Z,7.76
2022-10-18T22:24:24.420Z,7.71
2022-10-18T22:26:53.527Z,7.64
2022-10-18T22:29:22.749Z,7.59
2022-10-18T22:31:52.664Z,7.57
2022-10-18T22:34:23.542Z,7.53
2022-10-18T22:36:53.121Z,7.51
2022-10-18T22:39:22.443Z,7.52
2022-10-18T22:41:56.726Z,7.52
2022-10-18T22:44:26.302Z,7.46
2022-10-18T22:46:55.800Z,7.41
2022-10-18T22:49:24.959Z,7.39
2022-10-18T22:51:54.623Z,7.37
2022-10-18T22:54:24.120Z,7.34
2022-10-18T22:56:53.771Z,7.33
2022-10-18T22:59:22.547Z,7.31
2022-10-18T23:01:55.279Z,7.30
2022-10-18T23:04:24.668Z,7.28
2022-10-18T23:06:54.292Z,7.24
2022-10-18T23:09:22.779Z,7.22
2022-10-18T23:11:53.538Z,7.20
2022-10-18T23:14:22.994Z,7.17
2022-10-18T23:16:52.515Z,7.12
2022-10-18T23:19:21.809Z,7.08
2022-10-18T23:21:51.349Z,7.04
2022-10-18T23:24:20.941Z,7.01
2022-10-18T23:26:50.556Z,6.99
2022-10-18T23:29:19.065Z,6.96
2022-10-18T23:31:48.203Z,6.91
2022-10-18T23:34:17.665Z,6.87
2022-10-18T23:36:48.052Z,6.85
2022-10-18T23:39:17.638Z,6.82
2022-10-18T23:41:46.859Z,6.79
2022-10-18T23:44:16.143Z,6.77
2022-10-18T23:46:45.253Z,6.77
2022-10-18T23:49:14.528Z,6.74
2022-10-18T23:51:42.979Z,6.72
2022-10-18T23:54:12.244Z,6.69
2022-10-18T23:56:41.416Z,6.67
2022-10-18T23:59:10.647Z,6.63
